sensor_id;sensor_type;location;lat;lon;timestamp;P1;durP1;ratioP1;P2;durP2;ratioP2
13163;SDS011;6647;53.688;10.746;2023-08-06T00:00:28;4.53;;;2.47;;
13163;SDS011;6647;53.688;10.746;2023-08-06T00:01:28;3.07;;;2.50;;
13163;SDS011;6647;53.688;10.746;2023-08-06T00:02:28;4.47;;;2.77;;
13163;SDS011;6647;53.688;10.746;2023-08-06T00:03:29;2.87;;;2.23;;
13163;SDS011;6647;53.688;10.746;2023-08-06T00:04:29;2.73;;;2.40;;
13163;SDS011;6647;53.688;10.746;2023-08-06T00:05:29;4.00;;;2.33;;
13163;SDS011;6647;53.688;10.746;2023-08-06T00:06:29;8.10;;;2.73;;
13163;SDS011;6647;53.688;10.746;2023-08-06T00:07:30;3.47;;;2.40;;
13163;SDS011;6647;53.688;10.746;2023-08-06T00:08:30;4.07;;;2.13;;
13163;SDS011;6647;53.688;10.746;2023-08-06T00:09:30;3.57;;;2.30;;
13163;SDS011;6647;53.688;10.746;2023-08-06T00:10:31;3.37;;;2.30;;
13163;SDS011;6647;53.688;10.746;2023-08-06T00:11:31;5.13;;;2.70;;
13163;SDS011;6647;53.688;10.746;2023-08-06T00:12:31;6.83;;;2.93;;
13163;SDS011;6647;53.688;10.746;2023-08-06T00:13:32;3.20;;;2.47;;
13163;SDS011;6647;53.688;10.746;2023-08-06T00:14:32;4.03;;;3.57;;
13163;SDS011;6647;53.688;10.746;2023-08-06T00:15:32;4.00;;;2.47;;
13163;SDS011;6647;53.688;10.746;2023-08-06T00:16:33;2.53;;;2.20;;
13163;SDS011;6647;53.688;10.746;2023-08-06T00:17:33;5.87;;;2.60;;
13163;SDS011;6647;53.688;10.746;2023-08-06T00:18:34;6.85;;;3.15;;
13163;SDS011;6647;53.688;10.746;2023-08-06T00:19:34;7.37;;;3.17;;
13163;SDS011;6647;53.688;10.746;2023-08-06T00:20:35;4.50;;;2.90;;
13163;SDS011;6647;53.688;10.746;2023-08-06T00:21:35;8.80;;;2.80;;
13163;SDS011;6647;53.688;10.746;2023-08-06T00:22:36;3.77;;;2.57;;
13163;SDS011;6647;53.688;10.746;2023-08-06T00:23:37;4.50;;;2.47;;
13163;SDS011;6647;53.688;10.746;2023-08-06T00:24:37;5.37;;;3.00;;
13163;SDS011;6647;53.688;10.746;2023-08-06T00:25:37;5.13;;;2.93;;
13163;SDS011;6647;53.688;10.746;2023-08-06T00:26:38;2.63;;;2.43;;
13163;SDS011;6647;53.688;10.746;2023-08-06T00:27:38;3.77;;;2.90;;
13163;SDS011;6647;53.688;10.746;2023-08-06T00:28:38;6.50;;;2.70;;
13163;SDS011;6647;53.688;10.746;2023-08-06T00:29:39;3.80;;;2.83;;
13163;SDS011;6647;53.688;10.746;2023-08-06T00:30:39;3.70;;;2.60;;
13163;SDS011;6647;53.688;10.746;2023-08-06T00:31:39;3.10;;;2.80;;
13163;SDS011;6647;53.688;10.746;2023-08-06T00:32:40;4.47;;;2.77;;
13163;SDS011;6647;53.688;10.746;2023-08-06T00:33:40;4.00;;;2.50;;
13163;SDS011;6647;53.688;10.746;2023-08-06T00:34:40;3.93;;;3.10;;
13163;SDS011;6647;53.688;10.746;2023-08-06T00:35:41;7.63;;;3.00;;
13163;SDS011;6647;53.688;10.746;2023-08-06T00:36:41;7.87;;;2.97;;
13163;SDS011;6647;53.688;10.746;2023-08-06T00:37:44;3.22;;;2.20;;
13163;SDS011;6647;53.688;10.746;2023-08-06T00:38:45;11.03;;;2.90;;
13163;SDS011;6647;53.688;10.746;2023-08-06T00:39:45;8.67;;;3.10;;
13163;SDS011;6647;53.688;10.746;2023-08-06T00:40:45;6.63;;;2.90;;
13163;SDS011;6647;53.688;10.746;2023-08-06T00:41:48;6.50;;;2.35;;
13163;SDS011;6647;53.688;10.746;2023-08-06T00:42:49;3.97;;;2.50;;
13163;SDS011;6647;53.688;10.746;2023-08-06T00:43:49;7.50;;;3.33;;
13163;SDS011;6647;53.688;10.746;2023-08-06T00:44:49;5.53;;;3.30;;
13163;SDS011;6647;53.688;10.746;2023-08-06T00:45:50;3.60;;;2.60;;
13163;SDS011;6647;53.688;10.746;2023-08-06T00:46:50;3.80;;;3.00;;
13163;SDS011;6647;53.688;10.746;2023-08-06T00:47:50;4.37;;;2.60;;
13163;SDS011;6647;53.688;10.746;2023-08-06T00:48:51;5.17;;;2.83;;
13163;SDS011;6647;53.688;10.746;2023-08-06T00:49:51;4.20;;;2.97;;
13163;SDS011;6647;53.688;10.746;2023-08-06T00:50:52;3.70;;;2.80;;
13163;SDS011;6647;53.688;10.746;2023-08-06T00:51:52;5.30;;;2.53;;
13163;SDS011;6647;53.688;10.746;2023-08-06T00:52:53;3.93;;;2.90;;
13163;SDS011;6647;53.688;10.746;2023-08-06T00:53:54;5.17;;;3.00;;
13163;SDS011;6647;53.688;10.746;2023-08-06T00:54:54;4.33;;;3.13;;
13163;SDS011;6647;53.688;10.746;2023-08-06T00:55:55;5.50;;;3.07;;
13163;SDS011;6647;53.688;10.746;2023-08-06T00:56:56;5.23;;;2.80;;
13163;SDS011;6647;53.688;10.746;2023-08-06T00:57:57;5.75;;;2.70;;
13163;SDS011;6647;53.688;10.746;2023-08-06T00:58:58;7.23;;;3.30;;
13163;SDS011;6647;53.688;10.746;2023-08-06T00:59:59;3.33;;;3.00;;
13163;SDS011;6647;53.688;10.746;2023-08-06T01:00:59;3.00;;;2.70;;
13163;SDS011;6647;53.688;10.746;2023-08-06T01:02:00;4.30;;;3.23;;
13163;SDS011;6647;53.688;10.746;2023-08-06T01:03:00;7.90;;;3.47;;
13163;SDS011;6647;53.688;10.746;2023-08-06T01:04:01;3.80;;;2.70;;
13163;SDS011;6647;53.688;10.746;2023-08-06T01:05:01;4.80;;;3.13;;
13163;SDS011;6647;53.688;10.746;2023-08-06T01:06:01;7.53;;;3.00;;
13163;SDS011;6647;53.688;10.746;2023-08-06T01:07:13;8.27;;;2.80;;
13163;SDS011;6647;53.688;10.746;2023-08-06T01:09:07;6.72;;;3.03;;
13163;SDS011;6647;53.688;10.746;2023-08-06T01:11:31;6.82;;;3.05;;
13163;SDS011;6647;53.688;10.746;2023-08-06T01:13:46;3.78;;;3.28;;
13163;SDS011;6647;53.688;10.746;2023-08-06T01:14:54;7.93;;;3.28;;
13163;SDS011;6647;53.688;10.746;2023-08-06T01:16:17;8.32;;;3.38;;
13163;SDS011;6647;53.688;10.746;2023-08-06T01:17:18;3.47;;;2.85;;
13163;SDS011;6647;53.688;10.746;2023-08-06T01:18:20;5.13;;;2.90;;
13163;SDS011;6647;53.688;10.746;2023-08-06T01:19:20;8.00;;;3.27;;
13163;SDS011;6647;53.688;10.746;2023-08-06T01:20:21;3.23;;;2.93;;
13163;SDS011;6647;53.688;10.746;2023-08-06T01:21:21;9.17;;;3.00;;
13163;SDS011;6647;53.688;10.746;2023-08-06T01:22:22;5.43;;;2.90;;
13163;SDS011;6647;53.688;10.746;2023-08-06T01:23:22;3.27;;;2.97;;
13163;SDS011;6647;53.688;10.746;2023-08-06T01:24:23;4.50;;;3.20;;
13163;SDS011;6647;53.688;10.746;2023-08-06T01:25:26;8.47;;;3.40;;
13163;SDS011;6647;53.688;10.746;2023-08-06T01:26:39;5.60;;;3.30;;
13163;SDS011;6647;53.688;10.746;2023-08-06T01:27:44;4.28;;;2.70;;
13163;SDS011;6647;53.688;10.746;2023-08-06T01:30:12;8.90;;;3.10;;
13163;SDS011;6647;53.688;10.746;2023-08-06T01:31:30;7.45;;;3.45;;
13163;SDS011;6647;53.688;10.746;2023-08-06T01:32:32;5.85;;;3.03;;
13163;SDS011;6647;53.688;10.746;2023-08-06T01:33:35;3.63;;;3.03;;
13163;SDS011;6647;53.688;10.746;2023-08-06T01:34:37;5.20;;;2.90;;
13163;SDS011;6647;53.688;10.746;2023-08-06T01:35:39;10.75;;;2.90;;
13163;SDS011;6647;53.688;10.746;2023-08-06T01:36:39;6.50;;;2.80;;
13163;SDS011;6647;53.688;10.746;2023-08-06T01:37:40;5.23;;;3.10;;
13163;SDS011;6647;53.688;10.746;2023-08-06T01:38:41;10.57;;;3.23;;
13163;SDS011;6647;53.688;10.746;2023-08-06T01:39:44;11.20;;;3.37;;
13163;SDS011;6647;53.688;10.746;2023-08-06T01:40:45;8.00;;;3.45;;
13163;SDS011;6647;53.688;10.746;2023-08-06T01:41:46;4.00;;;2.63;;
13163;SDS011;6647;53.688;10.746;2023-08-06T01:42:47;7.22;;;3.13;;
13163;SDS011;6647;53.688;10.746;2023-08-06T01:43:47;3.80;;;3.50;;
13163;SDS011;6647;53.688;10.746;2023-08-06T01:44:48;9.37;;;2.70;;
13163;SDS011;6647;53.688;10.746;2023-08-06T01:45:48;4.47;;;3.20;;
13163;SDS011;6647;53.688;10.746;2023-08-06T01:46:49;3.97;;;2.73;;
13163;SDS011;6647;53.688;10.746;2023-08-06T01:47:49;5.03;;;3.10;;
13163;SDS011;6647;53.688;10.746;2023-08-06T01:48:49;6.30;;;2.70;;
13163;SDS011;6647;53.688;10.746;2023-08-06T01:49:49;4.83;;;3.30;;
13163;SDS011;6647;53.688;10.746;2023-08-06T01:50:50;5.80;;;3.40;;
13163;SDS011;6647;53.688;10.746;2023-08-06T01:51:50;4.60;;;3.30;;
13163;SDS011;6647;53.688;10.746;2023-08-06T01:52:50;6.40;;;3.60;;
13163;SDS011;6647;53.688;10.746;2023-08-06T01:53:51;8.18;;;4.00;;
13163;SDS011;6647;53.688;10.746;2023-08-06T01:54:52;8.17;;;3.20;;
13163;SDS011;6647;53.688;10.746;2023-08-06T01:55:52;6.83;;;3.70;;
13163;SDS011;6647;53.688;10.746;2023-08-06T01:56:52;7.07;;;3.17;;
13163;SDS011;6647;53.688;10.746;2023-08-06T01:57:53;12.67;;;3.10;;
13163;SDS011;6647;53.688;10.746;2023-08-06T01:58:53;5.90;;;3.20;;
13163;SDS011;6647;53.688;10.746;2023-08-06T01:59:53;4.40;;;2.80;;
13163;SDS011;6647;53.688;10.746;2023-08-06T02:00:54;5.43;;;3.10;;
13163;SDS011;6647;53.688;10.746;2023-08-06T02:01:54;7.00;;;3.23;;
13163;SDS011;6647;53.688;10.746;2023-08-06T02:02:54;5.37;;;3.10;;
13163;SDS011;6647;53.688;10.746;2023-08-06T02:03:55;8.13;;;2.73;;
13163;SDS011;6647;53.688;10.746;2023-08-06T02:04:55;3.97;;;2.80;;
13163;SDS011;6647;53.688;10.746;2023-08-06T02:05:55;6.50;;;3.47;;
13163;SDS011;6647;53.688;10.746;2023-08-06T02:06:56;7.07;;;3.83;;
13163;SDS011;6647;53.688;10.746;2023-08-06T02:07:56;5.10;;;3.27;;
13163;SDS011;6647;53.688;10.746;2023-08-06T02:08:56;4.93;;;3.93;;
13163;SDS011;6647;53.688;10.746;2023-08-06T02:09:57;8.10;;;3.73;;
13163;SDS011;6647;53.688;10.746;2023-08-06T02:10:57;5.67;;;3.37;;
13163;SDS011;6647;53.688;10.746;2023-08-06T02:11:58;6.50;;;3.60;;
13163;SDS011;6647;53.688;10.746;2023-08-06T02:12:58;3.60;;;3.10;;
13163;SDS011;6647;53.688;10.746;2023-08-06T02:13:59;5.10;;;3.73;;
13163;SDS011;6647;53.688;10.746;2023-08-06T02:14:59;6.90;;;3.20;;
13163;SDS011;6647;53.688;10.746;2023-08-06T02:15:59;7.13;;;3.63;;
13163;SDS011;6647;53.688;10.746;2023-08-06T02:17:00;4.87;;;3.07;;
13163;SDS011;6647;53.688;10.746;2023-08-06T02:18:00;4.10;;;3.20;;
13163;SDS011;6647;53.688;10.746;2023-08-06T02:19:00;6.77;;;3.60;;
13163;SDS011;6647;53.688;10.746;2023-08-06T02:20:01;6.40;;;3.77;;
13163;SDS011;6647;53.688;10.746;2023-08-06T02:21:01;7.30;;;3.70;;
13163;SDS011;6647;53.688;10.746;2023-08-06T02:22:02;7.10;;;4.10;;
13163;SDS011;6647;53.688;10.746;2023-08-06T02:23:02;5.97;;;4.20;;
13163;SDS011;6647;53.688;10.746;2023-08-06T02:24:03;12.53;;;4.20;;
13163;SDS011;6647;53.688;10.746;2023-08-06T02:25:03;6.37;;;3.67;;
13163;SDS011;6647;53.688;10.746;2023-08-06T02:26:04;4.60;;;3.27;;
13163;SDS011;6647;53.688;10.746;2023-08-06T02:27:04;7.00;;;3.37;;
13163;SDS011;6647;53.688;10.746;2023-08-06T02:28:05;13.43;;;3.97;;
13163;SDS011;6647;53.688;10.746;2023-08-06T02:29:05;9.03;;;4.07;;
13163;SDS011;6647;53.688;10.746;2023-08-06T02:30:06;6.63;;;3.97;;
13163;SDS011;6647;53.688;10.746;2023-08-06T02:31:06;7.03;;;3.83;;
13163;SDS011;6647;53.688;10.746;2023-08-06T02:32:08;6.55;;;3.30;;
13163;SDS011;6647;53.688;10.746;2023-08-06T02:33:08;11.53;;;3.80;;
13163;SDS011;6647;53.688;10.746;2023-08-06T02:34:08;7.77;;;3.70;;
13163;SDS011;6647;53.688;10.746;2023-08-06T02:35:09;7.43;;;4.07;;
13163;SDS011;6647;53.688;10.746;2023-08-06T02:36:09;4.30;;;3.30;;
13163;SDS011;6647;53.688;10.746;2023-08-06T02:37:09;4.80;;;3.37;;
13163;SDS011;6647;53.688;10.746;2023-08-06T02:38:10;5.20;;;3.60;;
13163;SDS011;6647;53.688;10.746;2023-08-06T02:39:10;14.37;;;4.27;;
13163;SDS011;6647;53.688;10.746;2023-08-06T02:40:12;5.90;;;4.00;;
13163;SDS011;6647;53.688;10.746;2023-08-06T02:41:12;7.83;;;3.43;;
13163;SDS011;6647;53.688;10.746;2023-08-06T02:42:12;9.50;;;4.13;;
13163;SDS011;6647;53.688;10.746;2023-08-06T02:43:13;8.90;;;3.70;;
13163;SDS011;6647;53.688;10.746;2023-08-06T02:44:13;7.93;;;3.80;;
13163;SDS011;6647;53.688;10.746;2023-08-06T02:45:13;10.63;;;3.90;;
13163;SDS011;6647;53.688;10.746;2023-08-06T02:46:14;11.17;;;4.20;;
13163;SDS011;6647;53.688;10.746;2023-08-06T02:47:14;9.63;;;4.10;;
13163;SDS011;6647;53.688;10.746;2023-08-06T02:48:14;11.43;;;3.70;;
13163;SDS011;6647;53.688;10.746;2023-08-06T02:49:15;8.07;;;3.30;;
13163;SDS011;6647;53.688;10.746;2023-08-06T02:50:15;5.93;;;4.03;;
13163;SDS011;6647;53.688;10.746;2023-08-06T02:51:15;4.27;;;3.60;;
13163;SDS011;6647;53.688;10.746;2023-08-06T02:52:16;8.73;;;4.37;;
13163;SDS011;6647;53.688;10.746;2023-08-06T02:53:16;4.63;;;3.47;;
13163;SDS011;6647;53.688;10.746;2023-08-06T02:54:16;7.33;;;3.50;;
13163;SDS011;6647;53.688;10.746;2023-08-06T02:55:17;7.40;;;3.60;;
13163;SDS011;6647;53.688;10.746;2023-08-06T02:56:17;7.23;;;4.00;;
13163;SDS011;6647;53.688;10.746;2023-08-06T02:57:18;6.43;;;3.70;;
13163;SDS011;6647;53.688;10.746;2023-08-06T02:58:18;4.73;;;3.27;;
13163;SDS011;6647;53.688;10.746;2023-08-06T02:59:22;6.07;;;3.85;;
13163;SDS011;6647;53.688;10.746;2023-08-06T03:00:22;13.00;;;3.50;;
13163;SDS011;6647;53.688;10.746;2023-08-06T03:01:22;13.23;;;3.83;;
13163;SDS011;6647;53.688;10.746;2023-08-06T03:02:23;4.33;;;3.03;;
13163;SDS011;6647;53.688;10.746;2023-08-06T03:03:23;7.30;;;3.77;;
13163;SDS011;6647;53.688;10.746;2023-08-06T03:04:24;5.73;;;3.67;;
13163;SDS011;6647;53.688;10.746;2023-08-06T03:05:24;5.90;;;3.83;;
13163;SDS011;6647;53.688;10.746;2023-08-06T03:06:24;5.27;;;3.80;;
13163;SDS011;6647;53.688;10.746;2023-08-06T03:07:24;4.47;;;3.50;;
13163;SDS011;6647;53.688;10.746;2023-08-06T03:08:25;6.90;;;3.67;;
13163;SDS011;6647;53.688;10.746;2023-08-06T03:09:26;9.27;;;3.27;;
13163;SDS011;6647;53.688;10.746;2023-08-06T03:10:26;7.43;;;3.77;;
13163;SDS011;6647;53.688;10.746;2023-08-06T03:11:26;8.77;;;4.37;;
13163;SDS011;6647;53.688;10.746;2023-08-06T03:12:27;7.47;;;4.60;;
13163;SDS011;6647;53.688;10.746;2023-08-06T03:13:27;6.37;;;3.90;;
13163;SDS011;6647;53.688;10.746;2023-08-06T03:14:28;5.67;;;3.30;;
13163;SDS011;6647;53.688;10.746;2023-08-06T03:15:28;8.20;;;4.10;;
13163;SDS011;6647;53.688;10.746;2023-08-06T03:16:30;4.55;;;3.63;;
13163;SDS011;6647;53.688;10.746;2023-08-06T03:17:31;7.07;;;3.97;;
13163;SDS011;6647;53.688;10.746;2023-08-06T03:18:31;7.43;;;3.77;;
13163;SDS011;6647;53.688;10.746;2023-08-06T03:19:31;10.30;;;4.00;;
13163;SDS011;6647;53.688;10.746;2023-08-06T03:20:32;5.63;;;3.93;;
13163;SDS011;6647;53.688;10.746;2023-08-06T03:21:33;8.70;;;3.78;;
13163;SDS011;6647;53.688;10.746;2023-08-06T03:22:34;7.43;;;4.27;;
13163;SDS011;6647;53.688;10.746;2023-08-06T03:23:34;5.83;;;4.27;;
13163;SDS011;6647;53.688;10.746;2023-08-06T03:24:34;10.63;;;4.03;;
13163;SDS011;6647;53.688;10.746;2023-08-06T03:25:35;8.10;;;3.87;;
13163;SDS011;6647;53.688;10.746;2023-08-06T03:26:36;9.48;;;4.55;;
13163;SDS011;6647;53.688;10.746;2023-08-06T03:27:36;13.40;;;4.30;;
13163;SDS011;6647;53.688;10.746;2023-08-06T03:28:36;7.20;;;4.20;;
13163;SDS011;6647;53.688;10.746;2023-08-06T03:29:37;5.70;;;4.20;;
13163;SDS011;6647;53.688;10.746;2023-08-06T03:30:37;12.60;;;3.80;;
13163;SDS011;6647;53.688;10.746;2023-08-06T03:31:38;8.35;;;4.40;;
13163;SDS011;6647;53.688;10.746;2023-08-06T03:32:38;8.10;;;4.40;;
13163;SDS011;6647;53.688;10.746;2023-08-06T03:33:38;6.63;;;4.10;;
13163;SDS011;6647;53.688;10.746;2023-08-06T03:34:39;8.67;;;4.00;;
13163;SDS011;6647;53.688;10.746;2023-08-06T03:35:39;4.70;;;4.00;;
13163;SDS011;6647;53.688;10.746;2023-08-06T03:36:40;6.17;;;4.60;;
13163;SDS011;6647;53.688;10.746;2023-08-06T03:37:41;13.52;;;4.90;;
13163;SDS011;6647;53.688;10.746;2023-08-06T03:38:41;7.57;;;4.13;;
13163;SDS011;6647;53.688;10.746;2023-08-06T03:39:41;8.17;;;4.50;;
13163;SDS011;6647;53.688;10.746;2023-08-06T03:40:41;7.53;;;3.80;;
13163;SDS011;6647;53.688;10.746;2023-08-06T03:41:42;6.73;;;3.60;;
13163;SDS011;6647;53.688;10.746;2023-08-06T03:42:42;4.60;;;3.93;;
13163;SDS011;6647;53.688;10.746;2023-08-06T03:43:42;7.13;;;4.10;;
13163;SDS011;6647;53.688;10.746;2023-08-06T03:44:43;14.13;;;4.53;;
13163;SDS011;6647;53.688;10.746;2023-08-06T03:45:43;8.63;;;4.83;;
13163;SDS011;6647;53.688;10.746;2023-08-06T03:46:43;7.70;;;4.43;;
13163;SDS011;6647;53.688;10.746;2023-08-06T03:47:44;10.07;;;4.40;;
13163;SDS011;6647;53.688;10.746;2023-08-06T03:48:45;10.60;;;4.17;;
13163;SDS011;6647;53.688;10.746;2023-08-06T03:49:45;5.70;;;3.90;;
13163;SDS011;6647;53.688;10.746;2023-08-06T03:50:46;7.70;;;4.10;;
13163;SDS011;6647;53.688;10.746;2023-08-06T03:51:46;9.20;;;4.77;;
13163;SDS011;6647;53.688;10.746;2023-08-06T03:52:46;11.23;;;3.93;;
13163;SDS011;6647;53.688;10.746;2023-08-06T03:53:47;9.40;;;4.57;;
13163;SDS011;6647;53.688;10.746;2023-08-06T03:54:47;5.30;;;4.13;;
13163;SDS011;6647;53.688;10.746;2023-08-06T03:55:50;7.43;;;4.28;;
13163;SDS011;6647;53.688;10.746;2023-08-06T03:56:50;7.57;;;4.33;;
13163;SDS011;6647;53.688;10.746;2023-08-06T03:57:51;11.93;;;5.13;;
13163;SDS011;6647;53.688;10.746;2023-08-06T03:58:51;6.73;;;4.63;;
13163;SDS011;6647;53.688;10.746;2023-08-06T03:59:52;8.60;;;5.03;;
13163;SDS011;6647;53.688;10.746;2023-08-06T04:00:59;5.03;;;4.17;;
13163;SDS011;6647;53.688;10.746;2023-08-06T04:02:00;14.10;;;4.88;;
13163;SDS011;6647;53.688;10.746;2023-08-06T04:03:00;15.23;;;4.47;;
13163;SDS011;6647;53.688;10.746;2023-08-06T04:04:00;12.53;;;4.47;;
13163;SDS011;6647;53.688;10.746;2023-08-06T04:05:01;6.97;;;4.57;;
13163;SDS011;6647;53.688;10.746;2023-08-06T04:06:04;8.00;;;4.70;;
13163;SDS011;6647;53.688;10.746;2023-08-06T04:07:04;4.38;;;3.90;;
13163;SDS011;6647;53.688;10.746;2023-08-06T04:08:05;5.13;;;3.83;;
13163;SDS011;6647;53.688;10.746;2023-08-06T04:09:05;8.20;;;4.70;;
13163;SDS011;6647;53.688;10.746;2023-08-06T04:10:05;7.13;;;4.30;;
13163;SDS011;6647;53.688;10.746;2023-08-06T04:11:06;9.77;;;3.83;;
13163;SDS011;6647;53.688;10.746;2023-08-06T04:12:06;6.53;;;4.30;;
13163;SDS011;6647;53.688;10.746;2023-08-06T04:13:07;5.97;;;4.70;;
13163;SDS011;6647;53.688;10.746;2023-08-06T04:14:07;5.10;;;4.30;;
13163;SDS011;6647;53.688;10.746;2023-08-06T04:15:09;6.25;;;4.55;;
13163;SDS011;6647;53.688;10.746;2023-08-06T04:16:09;10.20;;;4.70;;
13163;SDS011;6647;53.688;10.746;2023-08-06T04:17:10;12.83;;;4.77;;
13163;SDS011;6647;53.688;10.746;2023-08-06T04:18:10;14.23;;;4.60;;
13163;SDS011;6647;53.688;10.746;2023-08-06T04:19:10;7.80;;;4.80;;
13163;SDS011;6647;53.688;10.746;2023-08-06T04:20:11;9.63;;;4.70;;
13163;SDS011;6647;53.688;10.746;2023-08-06T04:21:11;6.03;;;4.00;;
13163;SDS011;6647;53.688;10.746;2023-08-06T04:22:11;17.93;;;4.97;;
13163;SDS011;6647;53.688;10.746;2023-08-06T04:23:12;6.33;;;4.70;;
13163;SDS011;6647;53.688;10.746;2023-08-06T04:24:12;7.67;;;4.17;;
13163;SDS011;6647;53.688;10.746;2023-08-06T04:25:12;13.00;;;4.77;;
13163;SDS011;6647;53.688;10.746;2023-08-06T04:26:13;9.43;;;4.00;;
13163;SDS011;6647;53.688;10.746;2023-08-06T04:27:14;7.33;;;4.33;;
13163;SDS011;6647;53.688;10.746;2023-08-06T04:28:14;12.05;;;4.95;;
13163;SDS011;6647;53.688;10.746;2023-08-06T04:29:15;8.60;;;4.33;;
13163;SDS011;6647;53.688;10.746;2023-08-06T04:30:15;10.83;;;4.00;;
13163;SDS011;6647;53.688;10.746;2023-08-06T04:31:16;16.13;;;4.00;;
13163;SDS011;6647;53.688;10.746;2023-08-06T04:32:16;7.97;;;4.30;;
13163;SDS011;6647;53.688;10.746;2023-08-06T04:33:19;5.35;;;3.65;;
13163;SDS011;6647;53.688;10.746;2023-08-06T04:34:20;7.93;;;4.80;;
13163;SDS011;6647;53.688;10.746;2023-08-06T04:35:20;11.33;;;4.80;;
13163;SDS011;6647;53.688;10.746;2023-08-06T04:36:20;10.03;;;4.80;;
13163;SDS011;6647;53.688;10.746;2023-08-06T04:37:21;5.57;;;4.17;;
13163;SDS011;6647;53.688;10.746;2023-08-06T04:38:23;11.97;;;4.27;;
13163;SDS011;6647;53.688;10.746;2023-08-06T04:39:24;11.23;;;4.47;;
13163;SDS011;6647;53.688;10.746;2023-08-06T04:40:24;11.77;;;4.57;;
13163;SDS011;6647;53.688;10.746;2023-08-06T04:41:24;11.13;;;4.60;;
13163;SDS011;6647;53.688;10.746;2023-08-06T04:42:25;12.73;;;4.60;;
13163;SDS011;6647;53.688;10.746;2023-08-06T04:43:25;6.53;;;4.00;;
13163;SDS011;6647;53.688;10.746;2023-08-06T04:44:25;5.70;;;3.97;;
13163;SDS011;6647;53.688;10.746;2023-08-06T04:45:26;7.93;;;4.53;;
13163;SDS011;6647;53.688;10.746;2023-08-06T04:46:26;9.00;;;4.47;;
13163;SDS011;6647;53.688;10.746;2023-08-06T04:47:26;7.83;;;4.40;;
13163;SDS011;6647;53.688;10.746;2023-08-06T04:48:27;10.03;;;4.17;;
13163;SDS011;6647;53.688;10.746;2023-08-06T04:49:27;14.00;;;4.47;;
13163;SDS011;6647;53.688;10.746;2023-08-06T04:50:27;6.63;;;4.60;;
13163;SDS011;6647;53.688;10.746;2023-08-06T04:51:28;4.83;;;4.10;;
13163;SDS011;6647;53.688;10.746;2023-08-06T04:52:28;5.60;;;4.30;;
13163;SDS011;6647;53.688;10.746;2023-08-06T04:53:29;10.33;;;4.80;;
13163;SDS011;6647;53.688;10.746;2023-08-06T04:54:29;11.00;;;4.80;;
13163;SDS011;6647;53.688;10.746;2023-08-06T04:55:29;6.97;;;3.93;;
13163;SDS011;6647;53.688;10.746;2023-08-06T04:56:31;6.53;;;4.63;;
13163;SDS011;6647;53.688;10.746;2023-08-06T04:57:32;14.40;;;4.68;;
13163;SDS011;6647;53.688;10.746;2023-08-06T04:58:32;11.60;;;4.20;;
13163;SDS011;6647;53.688;10.746;2023-08-06T04:59:33;6.10;;;4.10;;
13163;SDS011;6647;53.688;10.746;2023-08-06T05:00:34;5.27;;;4.10;;
13163;SDS011;6647;53.688;10.746;2023-08-06T05:01:34;6.53;;;4.50;;
13163;SDS011;6647;53.688;10.746;2023-08-06T05:02:35;4.10;;;3.70;;
13163;SDS011;6647;53.688;10.746;2023-08-06T05:03:38;7.60;;;3.90;;
13163;SDS011;6647;53.688;10.746;2023-08-06T05:04:38;7.23;;;4.63;;
13163;SDS011;6647;53.688;10.746;2023-08-06T05:05:39;13.80;;;4.73;;
13163;SDS011;6647;53.688;10.746;2023-08-06T05:06:41;9.18;;;5.30;;
13163;SDS011;6647;53.688;10.746;2023-08-06T05:07:41;8.37;;;4.77;;
13163;SDS011;6647;53.688;10.746;2023-08-06T05:08:42;6.57;;;4.67;;
13163;SDS011;6647;53.688;10.746;2023-08-06T05:09:42;9.80;;;3.73;;
13163;SDS011;6647;53.688;10.746;2023-08-06T05:10:43;13.40;;;5.00;;
13163;SDS011;6647;53.688;10.746;2023-08-06T05:11:44;5.93;;;3.92;;
13163;SDS011;6647;53.688;10.746;2023-08-06T05:12:44;9.10;;;4.50;;
13163;SDS011;6647;53.688;10.746;2023-08-06T05:13:45;8.60;;;4.07;;
13163;SDS011;6647;53.688;10.746;2023-08-06T05:14:45;9.73;;;4.43;;
13163;SDS011;6647;53.688;10.746;2023-08-06T05:15:45;7.27;;;4.40;;
13163;SDS011;6647;53.688;10.746;2023-08-06T05:16:47;10.32;;;4.30;;
13163;SDS011;6647;53.688;10.746;2023-08-06T05:17:48;6.33;;;4.73;;
13163;SDS011;6647;53.688;10.746;2023-08-06T05:18:48;9.93;;;4.70;;
13163;SDS011;6647;53.688;10.746;2023-08-06T05:19:48;6.87;;;4.30;;
13163;SDS011;6647;53.688;10.746;2023-08-06T05:20:49;10.03;;;4.30;;
13163;SDS011;6647;53.688;10.746;2023-08-06T05:21:49;8.43;;;4.13;;
13163;SDS011;6647;53.688;10.746;2023-08-06T05:22:50;7.03;;;4.03;;
13163;SDS011;6647;53.688;10.746;2023-08-06T05:23:51;8.65;;;4.25;;
13163;SDS011;6647;53.688;10.746;2023-08-06T05:24:51;6.70;;;4.43;;
13163;SDS011;6647;53.688;10.746;2023-08-06T05:25:52;5.53;;;3.93;;
13163;SDS011;6647;53.688;10.746;2023-08-06T05:26:52;10.10;;;4.57;;
13163;SDS011;6647;53.688;10.746;2023-08-06T05:27:52;11.63;;;4.97;;
13163;SDS011;6647;53.688;10.746;2023-08-06T05:28:53;8.40;;;4.70;;
13163;SDS011;6647;53.688;10.746;2023-08-06T05:29:56;7.20;;;3.90;;
13163;SDS011;6647;53.688;10.746;2023-08-06T05:30:57;7.35;;;4.90;;
13163;SDS011;6647;53.688;10.746;2023-08-06T05:31:57;8.10;;;4.67;;
13163;SDS011;6647;53.688;10.746;2023-08-06T05:32:58;5.70;;;4.03;;
13163;SDS011;6647;53.688;10.746;2023-08-06T05:33:58;8.80;;;4.80;;
13163;SDS011;6647;53.688;10.746;2023-08-06T05:34:59;9.63;;;4.67;;
13163;SDS011;6647;53.688;10.746;2023-08-06T05:35:59;5.03;;;4.00;;
13163;SDS011;6647;53.688;10.746;2023-08-06T05:36:59;5.37;;;4.00;;
13163;SDS011;6647;53.688;10.746;2023-08-06T05:38:02;8.45;;;4.78;;
13163;SDS011;6647;53.688;10.746;2023-08-06T05:39:02;11.73;;;4.97;;
13163;SDS011;6647;53.688;10.746;2023-08-06T05:40:02;8.80;;;4.43;;
13163;SDS011;6647;53.688;10.746;2023-08-06T05:41:04;11.60;;;4.75;;
13163;SDS011;6647;53.688;10.746;2023-08-06T05:42:04;6.97;;;4.23;;
13163;SDS011;6647;53.688;10.746;2023-08-06T05:43:05;7.77;;;4.57;;
13163;SDS011;6647;53.688;10.746;2023-08-06T05:44:05;8.93;;;4.43;;
13163;SDS011;6647;53.688;10.746;2023-08-06T05:45:06;5.80;;;4.40;;
13163;SDS011;6647;53.688;10.746;2023-08-06T05:46:07;7.38;;;4.63;;
13163;SDS011;6647;53.688;10.746;2023-08-06T05:47:07;9.87;;;4.13;;
13163;SDS011;6647;53.688;10.746;2023-08-06T05:48:07;8.30;;;4.70;;
13163;SDS011;6647;53.688;10.746;2023-08-06T05:49:08;8.23;;;4.73;;
13163;SDS011;6647;53.688;10.746;2023-08-06T05:50:10;19.73;;;4.95;;
13163;SDS011;6647;53.688;10.746;2023-08-06T05:51:10;6.63;;;4.20;;
13163;SDS011;6647;53.688;10.746;2023-08-06T05:52:12;7.15;;;3.97;;
13163;SDS011;6647;53.688;10.746;2023-08-06T05:53:13;8.80;;;3.90;;
13163;SDS011;6647;53.688;10.746;2023-08-06T05:54:13;5.30;;;4.20;;
13163;SDS011;6647;53.688;10.746;2023-08-06T05:55:13;8.83;;;4.87;;
13163;SDS011;6647;53.688;10.746;2023-08-06T05:56:14;7.23;;;5.07;;
13163;SDS011;6647;53.688;10.746;2023-08-06T05:57:14;7.60;;;4.83;;
13163;SDS011;6647;53.688;10.746;2023-08-06T05:58:14;10.43;;;5.37;;
13163;SDS011;6647;53.688;10.746;2023-08-06T05:59:14;7.10;;;4.60;;
13163;SDS011;6647;53.688;10.746;2023-08-06T06:00:15;9.33;;;4.80;;
13163;SDS011;6647;53.688;10.746;2023-08-06T06:01:15;7.10;;;5.10;;
13163;SDS011;6647;53.688;10.746;2023-08-06T06:02:15;7.60;;;4.60;;
13163;SDS011;6647;53.688;10.746;2023-08-06T06:03:16;8.50;;;4.53;;
13163;SDS011;6647;53.688;10.746;2023-08-06T06:04:18;6.63;;;4.10;;
13163;SDS011;6647;53.688;10.746;2023-08-06T06:05:18;6.70;;;4.40;;
13163;SDS011;6647;53.688;10.746;2023-08-06T06:06:18;11.33;;;5.00;;
13163;SDS011;6647;53.688;10.746;2023-08-06T06:07:20;5.82;;;4.70;;
13163;SDS011;6647;53.688;10.746;2023-08-06T06:08:20;7.10;;;4.73;;
13163;SDS011;6647;53.688;10.746;2023-08-06T06:09:20;13.27;;;5.13;;
13163;SDS011;6647;53.688;10.746;2023-08-06T06:10:21;4.90;;;3.77;;